sensor_id;sensor_type;location;lat;lon;timestamp;temperature;humidity
27940;DHT22;15275;51.716;14.324;2022-09-16T00:00:20;17.40;75.30
27940;DHT22;15275;51.716;14.324;2022-09-16T00:02:46;17.40;75.20
27940;DHT22;15275;51.716;14.324;2022-09-16T00:05:13;17.30;75.20
27940;DHT22;15275;51.716;14.324;2022-09-16T00:07:38;17.30;75.20
27940;DHT22;15275;51.716;14.324;2022-09-16T00:10:05;17.30;75.10
27940;DHT22;15275;51.716;14.324;2022-09-16T00:12:31;17.30;75.10
27940;DHT22;15275;51.716;14.324;2022-09-16T00:14:57;17.30;75.10
27940;DHT22;15275;51.716;14.324;2022-09-16T00:17:23;17.30;74.90
27940;DHT22;15275;51.716;14.324;2022-09-16T00:19:49;17.30;74.90
27940;DHT22;15275;51.716;14.324;2022-09-16T00:22:16;17.30;74.90
27940;DHT22;15275;51.716;14.324;2022-09-16T00:24:42;17.30;74.90
27940;DHT22;15275;51.716;14.324;2022-09-16T00:27:08;17.30;74.90
27940;DHT22;15275;51.716;14.324;2022-09-16T00:29:34;17.30;74.80
27940;DHT22;15275;51.716;14.324;2022-09-16T00:32:01;17.30;74.80
27940;DHT22;15275;51.716;14.324;2022-09-16T00:34:27;17.30;74.90
27940;DHT22;15275;51.716;14.324;2022-09-16T00:36:53;17.30;74.90
27940;DHT22;15275;51.716;14.324;2022-09-16T00:39:18;17.30;75.00
27940;DHT22;15275;51.716;14.324;2022-09-16T00:41:44;17.30;75.10
27940;DHT22;15275;51.716;14.324;2022-09-16T00:47:24;17.30;74.10
27940;DHT22;15275;51.716;14.324;2022-09-16T00:50:01;17.30;75.00
27940;DHT22;15275;51.716;14.324;2022-09-16T00:52:32;17.30;75.20
27940;DHT22;15275;51.716;14.324;2022-09-16T00:55:02;17.30;75.30
27940;DHT22;15275;51.716;14.324;2022-09-16T00:57:29;17.30;75.20
27940;DHT22;15275;51.716;14.324;2022-09-16T00:59:56;17.30;75.10
27940;DHT22;15275;51.716;14.324;2022-09-16T01:02:23;17.30;75.10
27940;DHT22;15275;51.716;14.324;2022-09-16T01:05:11;17.30;75.00
27940;DHT22;15275;51.716;14.324;2022-09-16T01:07:43;17.20;75.00
27940;DHT22;15275;51.716;14.324;2022-09-16T01:10:12;17.20;75.10
27940;DHT22;15275;51.716;14.324;2022-09-16T01:12:42;17.10;75.10
27940;DHT22;15275;51.716;14.324;2022-09-16T01:15:10;17.10;75.00
27940;DHT22;15275;51.716;14.324;2022-09-16T01:18:10;17.00;75.10
27940;DHT22;15275;51.716;14.324;2022-09-16T01:35:47;16.90;74.90
27940;DHT22;15275;51.716;14.324;2022-09-16T01:38:47;16.80;74.80
27940;DHT22;15275;51.716;14.324;2022-09-16T01:55:33;16.80;75.90
27940;DHT22;15275;51.716;14.324;2022-09-16T02:00:50;16.80;75.70
27940;DHT22;15275;51.716;14.324;2022-09-16T02:03:26;16.80;76.00
27940;DHT22;15275;51.716;14.324;2022-09-16T02:06:07;16.90;75.80
27940;DHT22;15275;51.716;14.324;2022-09-16T02:08:58;16.90;75.90
27940;DHT22;15275;51.716;14.324;2022-09-16T02:11:28;16.90;75.10
27940;DHT22;15275;51.716;14.324;2022-09-16T02:14:09;16.90;76.00
27940;DHT22;15275;51.716;14.324;2022-09-16T02:16:44;16.90;75.90
27940;DHT22;15275;51.716;14.324;2022-09-16T02:19:14;16.90;76.00
27940;DHT22;15275;51.716;14.324;2022-09-16T02:21:46;16.90;75.40
27940;DHT22;15275;51.716;14.324;2022-09-16T02:24:16;17.00;76.30
27940;DHT22;15275;51.716;14.324;2022-09-16T02:26:47;16.90;76.20
27940;DHT22;15275;51.716;14.324;2022-09-16T02:29:22;17.00;76.20
27940;DHT22;15275;51.716;14.324;2022-09-16T02:31:54;16.90;76.10
27940;DHT22;15275;51.716;14.324;2022-09-16T02:34:27;16.90;76.10
27940;DHT22;15275;51.716;14.324;2022-09-16T02:37:05;16.90;76.10
27940;DHT22;15275;51.716;14.324;2022-09-16T02:39:37;16.90;75.90
27940;DHT22;15275;51.716;14.324;2022-09-16T02:42:04;16.80;76.20
27940;DHT22;15275;51.716;14.324;2022-09-16T02:44:31;16.80;76.30
27940;DHT22;15275;51.716;14.324;2022-09-16T02:49:57;16.70;75.70
27940;DHT22;15275;51.716;14.324;2022-09-16T02:55:28;16.60;76.60
27940;DHT22;15275;51.716;14.324;2022-09-16T02:58:03;16.60;76.30
27940;DHT22;15275;51.716;14.324;2022-09-16T03:00:32;16.60;76.70
27940;DHT22;15275;51.716;14.324;2022-09-16T03:03:02;16.50;76.70
27940;DHT22;15275;51.716;14.324;2022-09-16T03:05:28;16.50;76.90
27940;DHT22;15275;51.716;14.324;2022-09-16T03:07:55;16.50;76.90
27940;DHT22;15275;51.716;14.324;2022-09-16T03:10:26;16.50;77.00
27940;DHT22;15275;51.716;14.324;2022-09-16T03:18:39;16.40;77.10
27940;DHT22;15275;51.716;14.324;2022-09-16T03:21:24;16.40;76.90
27940;DHT22;15275;51.716;14.324;2022-09-16T03:24:17;16.30;77.20
27940;DHT22;15275;51.716;14.324;2022-09-16T03:27:00;16.30;77.30
27940;DHT22;15275;51.716;14.324;2022-09-16T03:29:42;16.30;77.20
27940;DHT22;15275;51.716;14.324;2022-09-16T03:32:50;16.20;77.20
27940;DHT22;15275;51.716;14.324;2022-09-16T03:35:23;16.20;77.10
27940;DHT22;15275;51.716;14.324;2022-09-16T03:37:54;16.10;77.60
27940;DHT22;15275;51.716;14.324;2022-09-16T03:40:22;16.10;77.70
27940;DHT22;15275;51.716;14.324;2022-09-16T03:42:49;16.10;77.80
27940;DHT22;15275;51.716;14.324;2022-09-16T03:45:17;16.10;77.90
27940;DHT22;15275;51.716;14.324;2022-09-16T03:47:45;16.10;78.00
27940;DHT22;15275;51.716;14.324;2022-09-16T03:50:13;16.10;78.10
27940;DHT22;15275;51.716;14.324;2022-09-16T03:52:39;16.10;78.10
27940;DHT22;15275;51.716;14.324;2022-09-16T03:55:06;16.10;78.20
27940;DHT22;15275;51.716;14.324;2022-09-16T03:57:33;16.10;78.20
27940;DHT22;15275;51.716;14.324;2022-09-16T03:59:58;16.10;78.20
27940;DHT22;15275;51.716;14.324;2022-09-16T04:02:24;16.10;78.20
27940;DHT22;15275;51.716;14.324;2022-09-16T04:04:50;16.20;78.20
27940;DHT22;15275;51.716;14.324;2022-09-16T04:07:16;16.20;78.20
27940;DHT22;15275;51.716;14.324;2022-09-16T04:09:43;16.20;78.20
27940;DHT22;15275;51.716;14.324;2022-09-16T04:12:09;16.20;78.30
27940;DHT22;15275;51.716;14.324;2022-09-16T04:14:35;16.20;78.20
27940;DHT22;15275;51.716;14.324;2022-09-16T04:17:01;16.20;78.00
27940;DHT22;15275;51.716;14.324;2022-09-16T04:19:27;16.20;77.90
27940;DHT22;15275;51.716;14.324;2022-09-16T04:21:53;16.20;77.80
27940;DHT22;15275;51.716;14.324;2022-09-16T04:24:19;16.20;77.70
27940;DHT22;15275;51.716;14.324;2022-09-16T04:26:45;16.20;77.70
27940;DHT22;15275;51.716;14.324;2022-09-16T04:29:11;16.20;77.70
27940;DHT22;15275;51.716;14.324;2022-09-16T04:31:37;16.20;77.60
27940;DHT22;15275;51.716;14.324;2022-09-16T04:34:03;16.20;77.60
27940;DHT22;15275;51.716;14.324;2022-09-16T04:36:30;16.10;77.50
27940;DHT22;15275;51.716;14.324;2022-09-16T04:38:57;16.10;77.50
27940;DHT22;15275;51.716;14.324;2022-09-16T04:41:25;16.10;77.50
27940;DHT22;15275;51.716;14.324;2022-09-16T04:43:57;16.10;77.50
27940;DHT22;15275;51.716;14.324;2022-09-16T04:46:28;16.00;77.50
27940;DHT22;15275;51.716;14.324;2022-09-16T04:48:55;16.00;77.60
27940;DHT22;15275;51.716;14.324;2022-09-16T04:51:22;15.90;77.70
27940;DHT22;15275;51.716;14.324;2022-09-16T04:53:49;15.90;77.70
27940;DHT22;15275;51.716;14.324;2022-09-16T04:56:20;15.90;77.80
27940;DHT22;15275;51.716;14.324;2022-09-16T04:58:49;15.90;77.90
27940;DHT22;15275;51.716;14.324;2022-09-16T05:01:24;15.90;78.00
27940;DHT22;15275;51.716;14.324;2022-09-16T05:04:02;15.80;78.00
27940;DHT22;15275;51.716;14.324;2022-09-16T05:06:32;15.80;78.00
27940;DHT22;15275;51.716;14.324;2022-09-16T05:09:00;15.80;78.10
27940;DHT22;15275;51.716;14.324;2022-09-16T05:11:28;15.80;78.10
27940;DHT22;15275;51.716;14.324;2022-09-16T05:14:00;15.80;78.10
27940;DHT22;15275;51.716;14.324;2022-09-16T05:16:27;15.80;78.20
27940;DHT22;15275;51.716;14.324;2022-09-16T05:18:55;15.80;78.20
27940;DHT22;15275;51.716;14.324;2022-09-16T05:21:23;15.80;78.30
27940;DHT22;15275;51.716;14.324;2022-09-16T05:23:51;15.80;78.40
27940;DHT22;15275;51.716;14.324;2022-09-16T05:26:28;15.80;78.40
27940;DHT22;15275;51.716;14.324;2022-09-16T05:28:59;15.90;78.20
27940;DHT22;15275;51.716;14.324;2022-09-16T05:31:28;15.90;78.50
27940;DHT22;15275;51.716;14.324;2022-09-16T05:36:28;15.90;78.50
27940;DHT22;15275;51.716;14.324;2022-09-16T05:38:55;15.90;78.60
27940;DHT22;15275;51.716;14.324;2022-09-16T05:41:22;15.90;78.60
27940;DHT22;15275;51.716;14.324;2022-09-16T05:43:49;16.00;78.60
27940;DHT22;15275;51.716;14.324;2022-09-16T05:46:18;16.00;78.60
27940;DHT22;15275;51.716;14.324;2022-09-16T05:48:46;16.00;78.60
27940;DHT22;15275;51.716;14.324;2022-09-16T05:51:18;16.00;78.60
27940;DHT22;15275;51.716;14.324;2022-09-16T05:53:46;16.00;78.50
27940;DHT22;15275;51.716;14.324;2022-09-16T05:56:24;16.00;78.50
27940;DHT22;15275;51.716;14.324;2022-09-16T05:58:55;16.00;78.50
27940;DHT22;15275;51.716;14.324;2022-09-16T06:01:28;16.10;78.40
27940;DHT22;15275;51.716;14.324;2022-09-16T06:03:56;16.10;78.50
27940;DHT22;15275;51.716;14.324;2022-09-16T06:06:30;16.10;78.60
27940;DHT22;15275;51.716;14.324;2022-09-16T06:09:22;16.10;78.50
27940;DHT22;15275;51.716;14.324;2022-09-16T06:11:50;16.20;78.40
27940;DHT22;15275;51.716;14.324;2022-09-16T06:14:18;16.20;78.30
27940;DHT22;15275;51.716;14.324;2022-09-16T06:16:44;16.20;78.20
27940;DHT22;15275;51.716;14.324;2022-09-16T06:19:14;16.20;78.20
27940;DHT22;15275;51.716;14.324;2022-09-16T06:21:42;16.20;78.10
27940;DHT22;15275;51.716;14.324;2022-09-16T06:24:09;16.20;78.10
27940;DHT22;15275;51.716;14.324;2022-09-16T06:26:37;16.20;78.10
27940;DHT22;15275;51.716;14.324;2022-09-16T06:29:05;16.30;78.20
27940;DHT22;15275;51.716;14.324;2022-09-16T06:31:32;16.30;78.30
27940;DHT22;15275;51.716;14.324;2022-09-16T06:34:00;16.30;78.20
27940;DHT22;15275;51.716;14.324;2022-09-16T06:36:28;16.30;78.20
27940;DHT22;15275;51.716;14.324;2022-09-16T06:38:59;16.40;78.10
27940;DHT22;15275;51.716;14.324;2022-09-16T06:41:25;16.40;77.90
27940;DHT22;15275;51.716;14.324;2022-09-16T06:43:51;16.40;78.00
27940;DHT22;15275;51.716;14.324;2022-09-16T06:46:23;16.50;78.00
27940;DHT22;15275;51.716;14.324;2022-09-16T06:48:52;16.50;77.70
27940;DHT22;15275;51.716;14.324;2022-09-16T06:51:26;16.60;77.80
27940;DHT22;15275;51.716;14.324;2022-09-16T06:53:57;16.60;77.70
27940;DHT22;15275;51.716;14.324;2022-09-16T06:56:24;16.60;78.00
27940;DHT22;15275;51.716;14.324;2022-09-16T06:58:51;16.70;78.10
27940;DHT22;15275;51.716;14.324;2022-09-16T07:01:28;16.70;77.90
27940;DHT22;15275;51.716;14.324;2022-09-16T07:03:55;16.80;76.90
27940;DHT22;15275;51.716;14.324;2022-09-16T07:06:24;16.80;77.50
27940;DHT22;15275;51.716;14.324;2022-09-16T07:08:53;16.90;77.40
27940;DHT22;15275;51.716;14.324;2022-09-16T07:11:20;16.90;77.00
27940;DHT22;15275;51.716;14.324;2022-09-16T07:13:49;17.00;76.80
27940;DHT22;15275;51.716;14.324;2022-09-16T07:16:25;17.00;76.80
27940;DHT22;15275;51.716;14.324;2022-09-16T07:18:55;17.00;76.30
27940;DHT22;15275;51.716;14.324;2022-09-16T07:21:24;17.00;76.70
27940;DHT22;15275;51.716;14.324;2022-09-16T07:23:55;17.10;76.70
27940;DHT22;15275;51.716;14.324;2022-09-16T07:26:24;17.10;76.60
27940;DHT22;15275;51.716;14.324;2022-09-16T07:28:53;17.10;76.50
27940;DHT22;15275;51.716;14.324;2022-09-16T07:31:24;17.20;76.30
27940;DHT22;15275;51.716;14.324;2022-09-16T07:33:54;17.20;75.70
27940;DHT22;15275;51.716;14.324;2022-09-16T07:36:26;17.20;76.30
27940;DHT22;15275;51.716;14.324;2022-09-16T07:38:55;17.30;76.10
27940;DHT22;15275;51.716;14.324;2022-09-16T07:41:25;17.40;76.00
27940;DHT22;15275;51.716;14.324;2022-09-16T07:43:54;17.40;75.90
27940;DHT22;15275;51.716;14.324;2022-09-16T07:46:21;17.50;75.40
27940;DHT22;15275;51.716;14.324;2022-09-16T07:48:48;17.50;75.30
27940;DHT22;15275;51.716;14.324;2022-09-16T07:51:16;17.50;75.30
27940;DHT22;15275;51.716;14.324;2022-09-16T07:53:47;17.50;75.60
27940;DHT22;15275;51.716;14.324;2022-09-16T07:56:17;17.60;75.80
27940;DHT22;15275;51.716;14.324;2022-09-16T07:58:45;17.70;75.10
27940;DHT22;15275;51.716;14.324;2022-09-16T08:01:14;17.80;75.30
27940;DHT22;15275;51.716;14.324;2022-09-16T08:03:42;17.80;75.50
27940;DHT22;15275;51.716;14.324;2022-09-16T08:06:11;17.90;75.20
27940;DHT22;15275;51.716;14.324;2022-09-16T08:08:42;18.00;74.80
27940;DHT22;15275;51.716;14.324;2022-09-16T08:11:08;18.10;74.90
27940;DHT22;15275;51.716;14.324;2022-09-16T08:13:35;18.10;74.80
27940;DHT22;15275;51.716;14.324;2022-09-16T08:16:04;18.20;74.70
27940;DHT22;15275;51.716;14.324;2022-09-16T08:18:35;18.20;74.50
27940;DHT22;15275;51.716;14.324;2022-09-16T08:21:06;18.30;74.60
27940;DHT22;15275;51.716;14.324;2022-09-16T08:23:42;18.30;74.00
27940;DHT22;15275;51.716;14.324;2022-09-16T08:26:09;18.40;74.10
27940;DHT22;15275;51.716;14.324;2022-09-16T08:28:38;18.50;74.30
27940;DHT22;15275;51.716;14.324;2022-09-16T08:31:06;18.50;73.90
27940;DHT22;15275;51.716;14.324;2022-09-16T08:33:32;18.60;73.80
27940;DHT22;15275;51.716;14.324;2022-09-16T08:36:08;18.60;73.70
27940;DHT22;15275;51.716;14.324;2022-09-16T08:38:36;18.70;72.10
27940;DHT22;15275;51.716;14.324;2022-09-16T08:51:52;18.80;72.30
27940;DHT22;15275;51.716;14.324;2022-09-16T08:54:41;18.80;72.20
27940;DHT22;15275;51.716;14.324;2022-09-16T08:57:18;18.90;70.80
27940;DHT22;15275;51.716;14.324;2022-09-16T08:59:57;18.80;69.60
27940;DHT22;15275;51.716;14.324;2022-09-16T09:05:17;18.70;70.80
27940;DHT22;15275;51.716;14.324;2022-09-16T09:16:45;18.70;70.90
27940;DHT22;15275;51.716;14.324;2022-09-16T09:25:33;18.90;69.40
27940;DHT22;15275;51.716;14.324;2022-09-16T09:31:38;18.90;69.90
27940;DHT22;15275;51.716;14.324;2022-09-16T09:37:43;19.10;70.80
27940;DHT22;15275;51.716;14.324;2022-09-16T09:42:51;19.30;71.70
27940;DHT22;15275;51.716;14.324;2022-09-16T09:45:36;19.40;71.70
27940;DHT22;15275;51.716;14.324;2022-09-16T09:48:19;19.60;71.20
27940;DHT22;15275;51.716;14.324;2022-09-16T09:50:48;19.70;70.60
27940;DHT22;15275;51.716;14.324;2022-09-16T09:53:23;19.80;71.00
27940;DHT22;15275;51.716;14.324;2022-09-16T09:56:15;19.80;70.70
27940;DHT22;15275;51.716;14.324;2022-09-16T09:58:57;19.90;68.50
27940;DHT22;15275;51.716;14.324;2022-09-16T10:01:41;19.90;68.50
27940;DHT22;15275;51.716;14.324;2022-09-16T10:04:13;19.80;69.40
27940;DHT22;15275;51.716;14.324;2022-09-16T10:06:41;19.80;68.30
27940;DHT22;15275;51.716;14.324;2022-09-16T10:09:09;19.70;69.20
27940;DHT22;15275;51.716;14.324;2022-09-16T10:11:49;19.70;68.90
27940;DHT22;15275;51.716;14.324;2022-09-16T10:14:30;19.70;67.90
27940;DHT22;15275;51.716;14.324;2022-09-16T10:17:03;19.60;67.50
27940;DHT22;15275;51.716;14.324;2022-09-16T10:19:49;19.50;68.70
27940;DHT22;15275;51.716;14.324;2022-09-16T10:25:03;19.60;69.10
27940;DHT22;15275;51.716;14.324;2022-09-16T10:27:34;19.60;69.60
27940;DHT22;15275;51.716;14.324;2022-09-16T10:35:20;19.70;67.90
27940;DHT22;15275;51.716;14.324;2022-09-16T10:37:54;19.80;69.20
27940;DHT22;15275;51.716;14.324;2022-09-16T10:40:22;19.80;69.40
27940;DHT22;15275;51.716;14.324;2022-09-16T10:42:51;19.90;69.30
27940;DHT22;15275;51.716;14.324;2022-09-16T10:45:27;19.90;69.10
27940;DHT22;15275;51.716;14.324;2022-09-16T10:47:59;19.90;68.40
27940;DHT22;15275;51.716;14.324;2022-09-16T10:50:29;19.90;69.20
27940;DHT22;15275;51.716;14.324;2022-09-16T10:52:54;19.90;69.70
27940;DHT22;15275;51.716;14.324;2022-09-16T10:55:29;19.80;69.80
27940;DHT22;15275;51.716;14.324;2022-09-16T10:58:32;19.70;69.50
27940;DHT22;15275;51.716;14.324;2022-09-16T11:22:17;20.00;70.50
27940;DHT22;15275;51.716;14.324;2022-09-16T11:58:11;20.10;68.20
27940;DHT22;15275;51.716;14.324;2022-09-16T12:01:36;20.10;67.30
27940;DHT22;15275;51.716;14.324;2022-09-16T12:04:29;20.10;66.00
27940;DHT22;15275;51.716;14.324;2022-09-16T12:07:03;20.10;66.50
27940;DHT22;15275;51.716;14.324;2022-09-16T12:09:56;20.10;67.90
27940;DHT22;15275;51.716;14.324;2022-09-16T12:12:39;20.00;67.40
27940;DHT22;15275;51.716;14.324;2022-09-16T12:18:00;19.80;68.10
27940;DHT22;15275;51.716;14.324;2022-09-16T12:20:35;19.60;68.80
27940;DHT22;15275;51.716;14.324;2022-09-16T12:26:01;19.40;69.20
27940;DHT22;15275;51.716;14.324;2022-09-16T12:28:43;19.20;70.20
27940;DHT22;15275;51.716;14.324;2022-09-16T12:31:18;19.00;71.00
27940;DHT22;15275;51.716;14.324;2022-09-16T12:34:13;18.90;71.00
27940;DHT22;15275;51.716;14.324;2022-09-16T12:37:06;18.70;71.20
27940;DHT22;15275;51.716;14.324;2022-09-16T12:39:36;18.60;72.00
27940;DHT22;15275;51.716;14.324;2022-09-16T12:45:26;18.50;73.50
27940;DHT22;15275;51.716;14.324;2022-09-16T12:48:11;18.50;73.20
27940;DHT22;15275;51.716;14.324;2022-09-16T13:02:31;18.80;73.60
27940;DHT22;15275;51.716;14.324;2022-09-16T13:05:15;18.80;74.20
27940;DHT22;15275;51.716;14.324;2022-09-16T13:07:52;18.90;73.90
27940;DHT22;15275;51.716;14.324;2022-09-16T13:10:33;18.90;73.90
27940;DHT22;15275;51.716;14.324;2022-09-16T13:13:02;19.00;73.70
27940;DHT22;15275;51.716;14.324;2022-09-16T13:15:34;18.90;73.80
27940;DHT22;15275;51.716;14.324;2022-09-16T13:18:21;19.00;73.80
27940;DHT22;15275;51.716;14.324;2022-09-16T13:20:56;19.00;73.40
27940;DHT22;15275;51.716;14.324;2022-09-16T13:23:30;19.00;74.20
27940;DHT22;15275;51.716;14.324;2022-09-16T13:26:05;19.10;74.50
27940;DHT22;15275;51.716;14.324;2022-09-16T13:34:02;19.30;73.00
27940;DHT22;15275;51.716;14.324;2022-09-16T13:36:32;19.40;73.30
27940;DHT22;15275;51.716;14.324;2022-09-16T13:39:01;19.40;72.30
27940;DHT22;15275;51.716;14.324;2022-09-16T13:46:51;19.50;70.00
27940;DHT22;15275;51.716;14.324;2022-09-16T13:49:18;19.40;71.50
27940;DHT22;15275;51.716;14.324;2022-09-16T13:51:48;19.40;71.00
27940;DHT22;15275;51.716;14.324;2022-09-16T14:00:00;19.30;70.90
27940;DHT22;15275;51.716;14.324;2022-09-16T14:08:19;19.30;69.20
27940;DHT22;15275;51.716;14.324;2022-09-16T14:11:05;19.30;70.00
27940;DHT22;15275;51.716;14.324;2022-09-16T14:13:55;19.20;68.90
27940;DHT22;15275;51.716;14.324;2022-09-16T14:16:34;19.20;67.80
27940;DHT22;15275;51.716;14.324;2022-09-16T14:19:21;19.20;69.60
27940;DHT22;15275;51.716;14.324;2022-09-16T14:24:42;19.10;67.40
27940;DHT22;15275;51.716;14.324;2022-09-16T14:27:29;19.10;69.10
27940;DHT22;15275;51.716;14.324;2022-09-16T14:30:04;19.10;68.30
27940;DHT22;15275;51.716;14.324;2022-09-16T14:32:36;19.10;69.10
27940;DHT22;15275;51.716;14.324;2022-09-16T14:35:12;19.00;68.70
27940;DHT22;15275;51.716;14.324;2022-09-16T14:37:43;19.00;68.30
27940;DHT22;15275;51.716;14.324;2022-09-16T14:40:13;19.00;68.40
27940;DHT22;15275;51.716;14.324;2022-09-16T14:43:03;19.00;68.00
27940;DHT22;15275;51.716;14.324;2022-09-16T14:45:31;19.00;66.90
27940;DHT22;15275;51.716;14.324;2022-09-16T14:48:00;19.00;68.10
27940;DHT22;15275;51.716;14.324;2022-09-16T14:50:31;19.00;67.70
27940;DHT22;15275;51.716;14.324;2022-09-16T14:53:03;18.90;67.80
27940;DHT22;15275;51.716;14.324;2022-09-16T14:55:33;18.90;67.80
27940;DHT22;15275;51.716;14.324;2022-09-16T14:58:04;18.90;68.10
27940;DHT22;15275;51.716;14.324;2022-09-16T15:00:55;18.90;68.70
27940;DHT22;15275;51.716;14.324;2022-09-16T15:03:33;19.00;67.30
27940;DHT22;15275;51.716;14.324;2022-09-16T15:06:08;19.10;68.70
27940;DHT22;15275;51.716;14.324;2022-09-16T15:11:16;19.20;68.90
27940;DHT22;15275;51.716;14.324;2022-09-16T15:13:44;19.30;68.10
27940;DHT22;15275;51.716;14.324;2022-09-16T15:16:21;19.40;68.90
27940;DHT22;15275;51.716;14.324;2022-09-16T15:18:57;19.50;67.10
27940;DHT22;15275;51.716;14.324;2022-09-16T15:21:33;19.50;67.40
27940;DHT22;15275;51.716;14.324;2022-09-16T15:24:03;19.60;67.20
27940;DHT22;15275;51.716;14.324;2022-09-16T15:29:04;19.60;67.20
27940;DHT22;15275;51.716;14.324;2022-09-16T15:31:37;19.60;66.90
27940;DHT22;15275;51.716;14.324;2022-09-16T15:37:04;19.60;66.00
27940;DHT22;15275;51.716;14.324;2022-09-16T15:39:37;19.60;67.20
27940;DHT22;15275;51.716;14.324;2022-09-16T15:42:16;19.50;66.70
27940;DHT22;15275;51.716;14.324;2022-09-16T15:44:56;19.50;67.00
27940;DHT22;15275;51.716;14.324;2022-09-16T15:47:34;19.50;68.00
27940;DHT22;15275;51.716;14.324;2022-09-16T15:50:13;19.50;68.40
27940;DHT22;15275;51.716;14.324;2022-09-16T15:55:56;19.50;68.30
27940;DHT22;15275;51.716;14.324;2022-09-16T15:58:48;19.60;66.90
27940;DHT22;15275;51.716;14.324;2022-09-16T16:01:36;19.60;68.50
27940;DHT22;15275;51.716;14.324;2022-09-16T16:04:11;19.70;67.20
27940;DHT22;15275;51.716;14.324;2022-09-16T16:06:54;19.70;68.00
27940;DHT22;15275;51.716;14.324;2022-09-16T16:09:29;19.70;67.10
27940;DHT22;15275;51.716;14.324;2022-09-16T16:12:02;19.80;68.00
27940;DHT22;15275;51.716;14.324;2022-09-16T16:14:33;19.70;68.40
27940;DHT22;15275;51.716;14.324;2022-09-16T16:17:11;19.70;68.30
27940;DHT22;15275;51.716;14.324;2022-09-16T16:19:41;19.70;68.00
27940;DHT22;15275;51.716;14.324;2022-09-16T16:22:08;19.60;67.80
27940;DHT22;15275;51.716;14.324;2022-09-16T16:24:34;19.60;67.80
27940;DHT22;15275;51.716;14.324;2022-09-16T16:27:00;19.50;68.10
27940;DHT22;15275;51.716;14.324;2022-09-16T16:29:26;19.50;68.00
27940;DHT22;15275;51.716;14.324;2022-09-16T16:32:02;19.40;67.80
27940;DHT22;15275;51.716;14.324;2022-09-16T16:34:52;19.40;66.70
27940;DHT22;15275;51.716;14.324;2022-09-16T16:37:24;19.30;66.50
27940;DHT22;15275;51.716;14.324;2022-09-16T16:39:50;19.30;67.50
27940;DHT22;15275;51.716;14.324;2022-09-16T16:42:17;19.20;67.50
27940;DHT22;15275;51.716;14.324;2022-09-16T16:44:43;19.20;67.50
27940;DHT22;15275;51.716;14.324;2022-09-16T16:47:10;19.20;67.30
27940;DHT22;15275;51.716;14.324;2022-09-16T16:49:36;19.10;67.20
27940;DHT22;15275;51.716;14.324;2022-09-16T16:52:03;19.10;67.00
27940;DHT22;15275;51.716;14.324;2022-09-16T16:54:30;19.10;66.90
27940;DHT22;15275;51.716;14.324;2022-09-16T16:56:57;19.00;66.90
27940;DHT22;15275;51.716;14.324;2022-09-16T16:59:25;18.90;66.90
27940;DHT22;15275;51.716;14.324;2022-09-16T17:01:53;18.90;66.80
27940;DHT22;15275;51.716;14.324;2022-09-16T17:04:20;18.80;66.90
27940;DHT22;15275;51.716;14.324;2022-09-16T17:06:47;18.80;66.90
27940;DHT22;15275;51.716;14.324;2022-09-16T17:09:13;18.70;67.00
27940;DHT22;15275;51.716;14.324;2022-09-16T17:14:21;18.60;66.30
27940;DHT22;15275;51.716;14.324;2022-09-16T17:16:48;18.50;67.20
27940;DHT22;15275;51.716;14.324;2022-09-16T17:19:16;18.50;67.30
27940;DHT22;15275;51.716;14.324;2022-09-16T17:21:44;18.40;67.30
27940;DHT22;15275;51.716;14.324;2022-09-16T17:24:12;18.40;67.30
27940;DHT22;15275;51.716;14.324;2022-09-16T17:26:38;18.30;67.50
27940;DHT22;15275;51.716;14.324;2022-09-16T17:29:04;18.20;67.70
27940;DHT22;15275;51.716;14.324;2022-09-16T17:31:31;18.10;67.80
27940;DHT22;15275;51.716;14.324;2022-09-16T17:34:03;18.10;67.90
27940;DHT22;15275;51.716;14.324;2022-09-16T17:36:32;18.00;68.00
27940;DHT22;15275;51.716;14.324;2022-09-16T17:39:01;18.00;68.30
27940;DHT22;15275;51.716;14.324;2022-09-16T17:41:31;17.90;68.60
27940;DHT22;15275;51.716;14.324;2022-09-16T17:44:02;17.90;68.70
27940;DHT22;15275;51.716;14.324;2022-09-16T17:46:29;17.80;68.80
27940;DHT22;15275;51.716;14.324;2022-09-16T17:49:00;17.80;68.80
27940;DHT22;15275;51.716;14.324;2022-09-16T17:51:31;17.70;68.60
27940;DHT22;15275;51.716;14.324;2022-09-16T17:53:57;17.70;68.90
27940;DHT22;15275;51.716;14.324;2022-09-16T17:56:24;17.60;69.00
27940;DHT22;15275;51.716;14.324;2022-09-16T17:58:51;17.60;69.10
27940;DHT22;15275;51.716;14.324;2022-09-16T18:01:20;17.50;69.50
27940;DHT22;15275;51.716;14.324;2022-09-16T18:03:49;17.50;69.40
27940;DHT22;15275;51.716;14.324;2022-09-16T18:06:20;17.50;69.40
27940;DHT22;15275;51.716;14.324;2022-09-16T18:08:48;17.40;69.40
27940;DHT22;15275;51.716;14.324;2022-09-16T18:11:15;17.40;69.50
27940;DHT22;15275;51.716;14.324;2022-09-16T18:13:42;17.30;69.50
27940;DHT22;15275;51.716;14.324;2022-09-16T18:16:15;17.30;69.50
27940;DHT22;15275;51.716;14.324;2022-09-16T18:18:45;17.30;69.40
27940;DHT22;15275;51.716;14.324;2022-09-16T18:21:15;17.20;69.70
27940;DHT22;15275;51.716;14.324;2022-09-16T18:23:44;17.20;69.90
27940;DHT22;15275;51.716;14.324;2022-09-16T18:26:13;17.10;69.90
27940;DHT22;15275;51.716;14.324;2022-09-16T18:28:41;17.10;69.80
27940;DHT22;15275;51.716;14.324;2022-09-16T18:31:12;17.10;69.90
27940;DHT22;15275;51.716;14.324;2022-09-16T18:33:39;17.00;70.00
27940;DHT22;15275;51.716;14.324;2022-09-16T18:36:08;17.00;70.00
27940;DHT22;15275;51.716;14.324;2022-09-16T18:38:37;17.00;70.10
27940;DHT22;15275;51.716;14.324;2022-09-16T18:41:12;16.90;70.30
27940;DHT22;15275;51.716;14.324;2022-09-16T18:43:44;16.90;70.20
27940;DHT22;15275;51.716;14.324;2022-09-16T18:46:20;16.90;70.50
27940;DHT22;15275;51.716;14.324;2022-09-16T18:48:48;16.90;70.30
27940;DHT22;15275;51.716;14.324;2022-09-16T18:51:24;16.90;70.70
27940;DHT22;15275;51.716;14.324;2022-09-16T18:54:05;16.90;70.60
27940;DHT22;15275;51.716;14.324;2022-09-16T18:56:34;16.80;70.90
27940;DHT22;15275;51.716;14.324;2022-09-16T18:59:07;16.80;71.20
27940;DHT22;15275;51.716;14.324;2022-09-16T19:01:38;16.80;71.30
27940;DHT22;15275;51.716;14.324;2022-09-16T19:04:06;16.80;71.30
27940;DHT22;15275;51.716;14.324;2022-09-16T19:06:37;16.80;71.40
27940;DHT22;15275;51.716;14.324;2022-09-16T19:09:06;16.80;71.40
27940;DHT22;15275;51.716;14.324;2022-09-16T19:11:34;16.80;71.30
27940;DHT22;15275;51.716;14.324;2022-09-16T19:14:01;16.80;71.40